Time;durP1;ratioP1;P1;durP2;ratioP2;P2;SDS_P1;SDS_P2;PMS_P1;PMS_P2;Temp;Humidity;BMP_temperature;BMP_pressure;BME280_temperature;BME280_humidity;BME280_pressure;Samples;Min_cycle;Max_cycle;Signal;HPM_P1;HPM_P2
2023/04/24 00:00:06;;;;;;;30.30;14.53;;;9.60;99.90;;;;;;4993447;28;20624;-57
2023/04/24 00:02:34;;;;;;;25.27;15.20;;;9.60;99.90;;;;;;4972011;28;20250;-57
2023/04/24 00:05:04;;;;;;;28.83;14.43;;;9.60;99.90;;;;;;4992301;28;20222;-58
2023/04/24 00:07:32;;;;;;;23.63;14.07;;;9.60;99.90;;;;;;4989719;28;20198;-58
2023/04/24 00:10:01;;;;;;;27.40;14.10;;;9.60;99.90;;;;;;4986619;28;20257;-58
2023/04/24 00:12:29;;;;;;;26.33;13.60;;;9.60;99.90;;;;;;4992444;28;20297;-58
2023/04/24 00:14:59;;;;;;;24.87;15.00;;;9.60;99.90;;;;;;4992192;28;20272;-58
2023/04/24 00:17:27;;;;;;;25.57;14.10;;;9.60;99.90;;;;;;4992896;28;20222;-57
2023/04/24 00:19:58;;;;;;;25.03;14.40;;;9.60;99.90;;;;;;4995092;28;20222;-57
2023/04/24 00:22:27;;;;;;;24.67;15.17;;;9.60;99.90;;;;;;4996830;28;20568;-58
2023/04/24 00:24:55;;;;;;;26.37;14.03;;;9.60;99.90;;;;;;4992674;28;20198;-58
2023/04/24 00:27:24;;;;;;;26.90;13.90;;;9.60;99.90;;;;;;4987547;28;20223;-58
2023/04/24 00:29:52;;;;;;;24.37;14.03;;;9.60;99.90;;;;;;4986361;28;20226;-58
2023/04/24 00:32:21;;;;;;;28.37;14.73;;;9.60;99.90;;;;;;4988172;28;20218;-58
2023/04/24 00:34:50;;;;;;;29.47;15.67;;;9.60;99.90;;;;;;4990078;28;20736;-58
2023/04/24 00:37:18;;;;;;;24.97;13.70;;;9.60;99.90;;;;;;4993619;28;20604;-59
2023/04/24 00:39:46;;;;;;;26.53;13.93;;;9.50;99.90;;;;;;4987540;28;20214;-58
2023/04/24 00:42:15;;;;;;;25.63;14.60;;;9.50;99.90;;;;;;4986838;28;20230;-58
2023/04/24 00:44:44;;;;;;;29.43;15.07;;;9.50;99.90;;;;;;4991267;28;20614;-58
2023/04/24 00:47:14;;;;;;;30.40;13.97;;;9.50;99.90;;;;;;4988897;28;20226;-58
2023/04/24 00:49:43;;;;;;;30.67;15.17;;;9.40;99.90;;;;;;4991616;28;20199;-57
2023/04/24 00:52:17;;;;;;;30.87;15.00;;;9.40;99.90;;;;;;4989171;28;20195;-57
2023/04/24 00:54:45;;;;;;;25.00;14.43;;;9.40;99.90;;;;;;4995754;28;20219;-58
2023/04/24 00:57:15;;;;;;;24.93;15.50;;;9.40;99.90;;;;;;4991539;28;20581;-58
2023/04/24 00:59:45;;;;;;;26.50;14.93;;;9.40;99.90;;;;;;4990912;28;20727;-57
2023/04/24 01:05:14;;;;;;;25.77;13.50;;;9.30;99.90;;;;;;5478096;23;20293;-57
2023/04/24 01:07:45;;;;;;;19.80;12.87;;;9.30;99.90;;;;;;4998547;28;20193;-57
2023/04/24 01:10:15;;;;;;;29.43;13.37;;;9.30;99.90;;;;;;5008723;28;20186;-57
2023/04/24 01:12:43;;;;;;;19.03;12.20;;;9.20;99.90;;;;;;4993854;28;20225;-57
2023/04/24 01:15:12;;;;;;;21.27;12.00;;;9.20;99.90;;;;;;5008979;28;20266;-57
2023/04/24 01:17:41;;;;;;;17.93;10.77;;;9.20;99.90;;;;;;5006202;28;20222;-56
2023/04/24 01:20:10;;;;;;;21.47;11.87;;;9.10;99.90;;;;;;4991257;28;20222;-57
2023/04/24 01:22:40;;;;;;;18.83;10.07;;;9.10;99.90;;;;;;4998575;28;20252;-57
2023/04/24 01:25:09;;;;;;;15.63;9.97;;;9.10;99.90;;;;;;5008234;28;20596;-57
2023/04/24 01:27:38;;;;;;;13.43;10.00;;;9.10;99.90;;;;;;5012471;28;20759;-57
2023/04/24 01:30:07;;;;;;;14.50;9.57;;;9.10;99.90;;;;;;5003822;28;20547;-56
2023/04/24 01:32:37;;;;;;;12.60;9.10;;;9.00;99.90;;;;;;5001814;28;20214;-56
2023/04/24 01:35:07;;;;;;;10.60;8.77;;;9.00;99.90;;;;;;5013695;28;20239;-57
2023/04/24 01:37:36;;;;;;;11.17;8.30;;;8.90;99.90;;;;;;5010484;28;20189;-57
2023/04/24 01:40:08;;;;;;;10.93;8.30;;;8.80;99.90;;;;;;5006443;28;20325;-55
2023/04/24 01:42:36;;;;;;;8.67;7.47;;;8.80;99.90;;;;;;5007365;28;20221;-57
2023/04/24 01:45:06;;;;;;;10.20;7.83;;;8.70;99.90;;;;;;4999704;28;20226;-57
2023/04/24 01:47:34;;;;;;;10.23;8.27;;;8.70;99.90;;;;;;5007359;28;20232;-57
2023/04/24 01:50:03;;;;;;;9.93;8.37;;;8.70;99.90;;;;;;5010593;28;20217;-57
2023/04/24 01:52:33;;;;;;;13.73;9.63;;;8.70;99.90;;;;;;5008209;28;20206;-57
2023/04/24 01:55:01;;;;;;;18.17;10.40;;;8.70;99.90;;;;;;5011151;28;20202;-57
2023/04/24 01:57:31;;;;;;;13.57;9.87;;;8.70;99.90;;;;;;5008781;28;20221;-57
2023/04/24 01:59:59;;;;;;;17.90;10.80;;;8.70;99.90;;;;;;5002718;28;20221;-56
2023/04/24 02:02:28;;;;;;;15.83;11.33;;;8.70;99.90;;;;;;5008987;28;20222;-57
2023/04/24 02:04:57;;;;;;;16.53;11.73;;;8.70;99.90;;;;;;5005349;28;20217;-56
2023/04/24 02:07:25;;;;;;;22.53;12.77;;;8.70;99.90;;;;;;5012431;28;20197;-57
2023/04/24 02:09:55;;;;;;;17.57;12.13;;;8.80;99.90;;;;;;5012291;28;20189;-57
2023/04/24 02:12:23;;;;;;;18.57;12.33;;;8.80;99.90;;;;;;5014600;28;20210;-57
2023/04/24 02:14:53;;;;;;;18.97;13.07;;;8.80;99.90;;;;;;5006865;28;20217;-57
2023/04/24 02:17:23;;;;;;;20.53;13.17;;;8.80;99.90;;;;;;4999943;28;20230;-57
2023/04/24 02:19:52;;;;;;;22.70;13.80;;;8.80;99.90;;;;;;5007818;28;20226;-58
2023/04/24 02:22:20;;;;;;;20.70;13.17;;;8.80;99.90;;;;;;5010964;28;20605;-57
2023/04/24 02:24:51;;;;;;;20.00;13.63;;;8.80;99.90;;;;;;5006840;28;20206;-56
2023/04/24 02:27:19;;;;;;;23.27;13.13;;;8.80;99.90;;;;;;5010596;28;20213;-57
2023/04/24 02:29:47;;;;;;;17.70;12.47;;;8.80;99.90;;;;;;5000981;28;20687;-57
2023/04/24 02:32:17;;;;;;;22.00;12.90;;;8.80;99.90;;;;;;4998116;28;20222;-57
2023/04/24 02:34:45;;;;;;;19.30;13.03;;;8.70;99.90;;;;;;5014125;28;20662;-56
2023/04/24 02:37:13;;;;;;;20.13;13.83;;;8.80;99.90;;;;;;5012282;28;20202;-56
2023/04/24 02:39:41;;;;;;;19.77;12.37;;;8.70;99.90;;;;;;4997834;28;20708;-57
2023/04/24 02:42:11;;;;;;;23.50;12.73;;;8.70;99.90;;;;;;5009686;28;20229;-57
2023/04/24 02:44:39;;;;;;;20.97;13.07;;;8.70;99.90;;;;;;5000532;28;20694;-56
2023/04/24 02:47:10;;;;;;;21.30;12.30;;;8.70;99.90;;;;;;5008483;28;20256;-57
2023/04/24 02:49:40;;;;;;;21.23;12.17;;;8.70;99.90;;;;;;5005581;28;20196;-57
2023/04/24 02:52:08;;;;;;;18.53;11.87;;;8.60;99.90;;;;;;5007320;28;20194;-57
2023/04/24 02:54:38;;;;;;;18.30;12.30;;;8.70;99.90;;;;;;5003896;28;20273;-57
2023/04/24 02:57:07;;;;;;;19.63;12.13;;;8.60;99.90;;;;;;4989508;28;20242;-57
2023/04/24 02:59:35;;;;;;;15.07;11.27;;;8.70;99.90;;;;;;5003781;28;20218;-56
2023/04/24 03:02:03;;;;;;;15.40;11.30;;;8.70;99.90;;;;;;5005319;28;20206;-57
2023/04/24 03:04:31;;;;;;;17.87;11.07;;;8.60;99.90;;;;;;5000663;28;20222;-58
2023/04/24 03:07:02;;;;;;;13.73;10.30;;;8.60;99.90;;;;;;4991964;28;20247;-57
2023/04/24 03:09:30;;;;;;;14.03;11.13;;;8.60;99.90;;;;;;5016151;28;20225;-56
2023/04/24 03:11:58;;;;;;;15.50;11.10;;;8.70;99.90;;;;;;5014162;28;20690;-57
2023/04/24 03:14:27;;;;;;;20.87;15.43;;;8.70;99.90;;;;;;5010012;28;20221;-57
2023/04/24 03:16:55;;;;;;;13.87;11.07;;;8.60;99.90;;;;;;5008558;28;20222;-57
2023/04/24 03:19:24;;;;;;;14.10;11.50;;;8.60;99.90;;;;;;5012932;28;20213;-57
2023/04/24 03:21:52;;;;;;;15.77;11.20;;;8.70;99.90;;;;;;4998481;28;20269;-57
2023/04/24 03:24:22;;;;;;;13.80;9.70;;;8.70;99.90;;;;;;4997325;28;20230;-57
2023/04/24 03:26:50;;;;;;;13.23;9.60;;;8.60;99.90;;;;;;5010306;28;20237;-56
2023/04/24 03:29:19;;;;;;;16.57;9.83;;;8.60;99.90;;;;;;5010016;28;20218;-57
2023/04/24 03:31:47;;;;;;;15.70;10.03;;;8.60;99.90;;;;;;5006723;28;20227;-57
2023/04/24 03:34:15;;;;;;;13.77;9.00;;;8.60;99.90;;;;;;5006692;28;20647;-57
2023/04/24 03:36:44;;;;;;;12.13;9.27;;;8.60;99.90;;;;;;5004005;28;20230;-57
2023/04/24 03:39:12;;;;;;;13.13;9.63;;;8.60;99.90;;;;;;5007830;28;20259;-57
2023/04/24 03:41:41;;;;;;;12.97;9.10;;;8.60;99.90;;;;;;4994957;28;20236;-57
2023/04/24 03:44:10;;;;;;;12.80;9.07;;;8.60;99.90;;;;;;4994894;28;20714;-57
2023/04/24 03:46:38;;;;;;;16.07;9.17;;;8.60;99.90;;;;;;5013823;28;20194;-56
2023/04/24 03:49:07;;;;;;;12.20;8.27;;;8.60;99.90;;;;;;5010565;28;20224;-56
2023/04/24 03:51:35;;;;;;;16.37;9.20;;;8.60;99.90;;;;;;5011263;28;20683;-57
2023/04/24 03:54:03;;;;;;;9.77;7.67;;;8.60;99.90;;;;;;5007790;28;20218;-56
2023/04/24 03:56:32;;;;;;;11.87;7.93;;;8.60;99.90;;;;;;5010396;28;21063;-57
2023/04/24 03:59:02;;;;;;;11.67;7.97;;;8.60;99.90;;;;;;5012897;28;20229;-57
2023/04/24 04:01:30;;;;;;;17.13;8.83;;;8.60;99.90;;;;;;5016742;28;20269;-56
2023/04/24 04:03:58;;;;;;;16.47;9.17;;;8.60;99.90;;;;;;5007760;28;20214;-55
2023/04/24 04:06:30;;;;;;;18.67;9.80;;;8.60;99.90;;;;;;5015782;28;20225;-57
2023/04/24 04:08:58;;;;;;;13.60;9.47;;;8.60;99.90;;;;;;5011776;28;20213;-57
2023/04/24 04:11:27;;;;;;;15.53;10.07;;;8.60;99.90;;;;;;5009073;28;20210;-57
2023/04/24 04:13:56;;;;;;;16.70;11.13;;;8.60;99.90;;;;;;5004725;28;20276;-57
2023/04/24 04:16:27;;;;;;;19.07;11.40;;;8.50;99.90;;;;;;5010324;28;20648;-57
2023/04/24 04:18:55;;;;;;;22.23;12.10;;;8.50;99.90;;;;;;5010134;28;20222;-57
2023/04/24 04:21:23;;;;;;;18.87;11.27;;;8.50;99.90;;;;;;5012216;28;20296;-57
2023/04/24 04:23:52;;;;;;;19.20;12.27;;;8.40;99.90;;;;;;5011264;28;20308;-57
2023/04/24 04:26:21;;;;;;;25.00;13.23;;;8.40;99.90;;;;;;5008654;28;20219;-57
2023/04/24 04:28:49;;;;;;;26.57;15.73;;;8.40;99.90;;;;;;5003784;28;20321;-57
2023/04/24 04:31:18;;;;;;;38.43;20.43;;;8.40;99.90;;;;;;5011630;28;20652;-57
2023/04/24 04:33:47;;;;;;;31.77;16.17;;;8.40;99.90;;;;;;5004454;28;20217;-57
2023/04/24 04:36:18;;;;;;;35.07;17.63;;;8.40;99.90;;;;;;5011237;28;20692;-57
2023/04/24 04:38:46;;;;;;;30.63;15.37;;;8.40;99.90;;;;;;5006388;28;20241;-57
2023/04/24 04:41:16;;;;;;;26.50;14.13;;;8.40;99.90;;;;;;5000363;28;20233;-57
2023/04/24 04:43:46;;;;;;;33.00;15.70;;;8.40;99.90;;;;;;5011114;28;20241;-57
2023/04/24 04:46:14;;;;;;;30.27;14.73;;;8.40;99.90;;;;;;5010283;28;20205;-57
2023/04/24 04:48:43;;;;;;;24.20;13.60;;;8.40;99.90;;;;;;5026010;28;20233;-57
2023/04/24 04:51:12;;;;;;;28.50;13.43;;;8.40;99.90;;;;;;5006205;28;20301;-56
2023/04/24 04:53:41;;;;;;;23.30;14.20;;;8.30;99.90;;;;;;5002117;28;20268;-57
2023/04/24 04:56:09;;;;;;;25.80;14.30;;;8.30;99.90;;;;;;5009573;28;20218;-57
2023/04/24 04:58:37;;;;;;;23.53;13.93;;;8.30;99.90;;;;;;5008342;28;20249;-57
2023/04/24 05:01:06;;;;;;;27.80;13.40;;;8.30;99.90;;;;;;5007306;28;20222;-57
2023/04/24 05:03:36;;;;;;;27.70;13.80;;;8.30;99.90;;;;;;4983510;28;20218;-57
2023/04/24 05:06:06;;;;;;;25.70;14.30;;;8.30;99.90;;;;;;5015265;28;20235;-57
2023/04/24 05:08:36;;;;;;;28.93;13.97;;;8.30;99.90;;;;;;4995626;28;20260;-57
2023/04/24 05:11:04;;;;;;;23.20;13.53;;;8.20;99.90;;;;;;4999985;28;20227;-57
2023/04/24 05:13:33;;;;;;;24.43;13.90;;;8.20;99.90;;;;;;5010987;28;20202;-57
2023/04/24 05:16:08;;;;;;;26.47;13.60;;;8.20;99.90;;;;;;4990379;28;20569;-57
2023/04/24 05:18:39;;;;;;;23.60;13.47;;;8.20;99.90;;;;;;5001097;28;20218;-57
2023/04/24 05:21:07;;;;;;;32.90;13.97;;;8.20;99.90;;;;;;5003788;28;20261;-57
2023/04/24 05:23:37;;;;;;;25.60;14.63;;;8.20;99.90;;;;;;5007705;28;20723;-55
2023/04/24 05:26:05;;;;;;;29.57;13.43;;;8.20;99.90;;;;;;5001481;28;20584;-57
2023/04/24 05:28:36;;;;;;;24.37;14.10;;;8.20;99.90;;;;;;5004991;28;20564;-57
2023/04/24 05:31:05;;;;;;;27.10;14.33;;;8.20;99.90;;;;;;5005446;28;20289;-57
2023/04/24 05:33:33;;;;;;;25.77;14.10;;;8.20;99.90;;;;;;4995430;28;20225;-56
2023/04/24 05:36:01;;;;;;;19.33;12.97;;;8.20;99.90;;;;;;5010262;28;20213;-58
2023/04/24 05:38:29;;;;;;;30.27;15.10;;;8.20;99.90;;;;;;5007815;28;20229;-57
2023/04/24 05:40:59;;;;;;;27.33;15.07;;;8.20;99.90;;;;;;5009003;28;20706;-56
2023/04/24 05:43:27;;;;;;;26.00;13.57;;;8.20;99.90;;;;;;4991338;28;20209;-57
2023/04/24 05:45:55;;;;;;;31.80;15.07;;;8.20;99.90;;;;;;5006144;28;20195;-57
2023/04/24 05:48:24;;;;;;;26.40;14.00;;;8.20;99.90;;;;;;5001533;28;20712;-57
2023/04/24 05:50:53;;;;;;;28.77;14.40;;;8.10;99.90;;;;;;5004445;28;20233;-56
2023/04/24 05:53:21;;;;;;;25.53;13.83;;;8.10;99.90;;;;;;5005184;28;20624;-57
2023/04/24 05:55:49;;;;;;;21.73;14.30;;;8.10;99.90;;;;;;5006914;28;20230;-56
2023/04/24 05:58:19;;;;;;;29.43;15.07;;;8.20;99.90;;;;;;5007356;28;20235;-57
2023/04/24 06:00:47;;;;;;;29.47;15.33;;;8.20;99.90;;;;;;5012309;28;20411;-56
2023/04/24 06:03:16;;;;;;;25.73;14.57;;;8.20;99.90;;;;;;5015392;28;20294;-57
2023/04/24 06:05:44;;;;;;;38.17;15.57;;;8.20;99.90;;;;;;5010981;28;20253;-56
2023/04/24 06:08:12;;;;;;;33.60;16.43;;;8.20;99.90;;;;;;5012346;28;20222;-57
2023/04/24 06:10:41;;;;;;;35.37;16.80;;;8.20;99.90;;;;;;5010622;28;20580;-57
2023/04/24 06:13:09;;;;;;;29.17;15.10;;;8.20;99.90;;;;;;5011777;28;20193;-57
2023/04/24 06:15:39;;;;;;;31.83;16.60;;;8.20;99.90;;;;;;5010932;28;20218;-57
2023/04/24 06:18:07;;;;;;;30.80;15.90;;;8.20;99.90;;;;;;5001662;28;20222;-57
2023/04/24 06:20:35;;;;;;;30.83;17.00;;;8.20;99.90;;;;;;5014000;28;20569;-57
2023/04/24 06:23:03;;;;;;;38.97;17.27;;;8.20;99.90;;;;;;5003420;28;20218;-57
2023/04/24 06:25:32;;;;;;;32.80;17.77;;;8.20;99.90;;;;;;5010567;28;20186;-58
2023/04/24 06:28:01;;;;;;;36.17;16.67;;;8.30;99.90;;;;;;5004546;28;20201;-57
2023/04/24 06:30:29;;;;;;;36.70;18.17;;;8.30;99.90;;;;;;5009317;28;20241;-58
2023/04/24 06:32:59;;;;;;;35.03;17.47;;;8.30;99.90;;;;;;5010270;28;20217;-57
2023/04/24 06:35:46;;;;;;;30.97;18.40;;;8.40;99.90;;;;;;5006363;28;20689;-57
2023/04/24 06:38:15;;;;;;;37.00;17.67;;;8.40;99.90;;;;;;5007850;28;20697;-57
2023/04/24 06:40:44;;;;;;;40.53;18.53;;;8.40;99.90;;;;;;5010080;28;20313;-57
2023/04/24 06:43:12;;;;;;;38.23;17.60;;;8.60;99.90;;;;;;5011769;28;20229;-57
2023/04/24 06:45:40;;;;;;;39.80;17.50;;;8.60;99.90;;;;;;5008885;28;20225;-57
2023/04/24 06:48:10;;;;;;;36.63;17.73;;;8.60;99.90;;;;;;5000787;28;20308;-57
2023/04/24 06:50:39;;;;;;;28.40;15.77;;;8.70;99.90;;;;;;5019678;28;20272;-58
2023/04/24 06:53:08;;;;;;;27.30;16.07;;;8.80;99.90;;;;;;5014050;28;20650;-58
2023/04/24 06:55:37;;;;;;;32.03;15.80;;;8.90;99.90;;;;;;4993015;28;20194;-58
2023/04/24 06:58:05;;;;;;;28.30;16.10;;;8.90;99.90;;;;;;5014922;28;20240;-58
2023/04/24 07:00:34;;;;;;;31.57;15.23;;;9.00;99.90;;;;;;5012680;28;20237;-57
2023/04/24 07:03:02;;;;;;;28.93;13.70;;;9.00;99.90;;;;;;5015408;28;20217;-58
2023/04/24 07:05:34;;;;;;;31.47;14.47;;;9.00;99.90;;;;;;5011757;28;20225;-57
2023/04/24 07:08:02;;;;;;;28.50;13.83;;;9.00;99.90;;;;;;5012778;28;20238;-57
2023/04/24 07:10:30;;;;;;;29.40;14.20;;;8.90;99.90;;;;;;5011022;28;20186;-57
2023/04/24 07:12:59;;;;;;;31.50;14.50;;;8.90;99.90;;;;;;5009812;28;20619;-57
2023/04/24 07:15:27;;;;;;;30.13;15.50;;;8.90;99.90;;;;;;5005892;28;20276;-57
2023/04/24 07:17:55;;;;;;;34.10;15.00;;;8.90;99.90;;;;;;5008336;28;20222;-57
2023/04/24 07:20:24;;;;;;;33.90;13.90;;;8.90;99.90;;;;;;5011536;28;20246;-58
2023/04/24 07:22:54;;;;;;;20.90;13.00;;;8.90;99.90;;;;;;5012138;28;20222;-57
2023/04/24 07:25:22;;;;;;;24.93;13.27;;;9.00;99.90;;;;;;5021258;28;20202;-57
2023/04/24 07:27:51;;;;;;;27.23;13.30;;;9.10;99.90;;;;;;5015359;28;20267;-57
2023/04/24 07:30:19;;;;;;;27.73;11.73;;;9.20;99.90;;;;;;5017792;28;20637;-57
2023/04/24 07:32:47;;;;;;;25.27;11.50;;;9.50;99.90;;;;;;5013142;28;20221;-57
2023/04/24 07:35:17;;;;;;;18.90;9.87;;;9.80;99.90;;;;;;5010889;28;20288;-57
2023/04/24 07:37:46;;;;;;;17.30;9.40;;;9.90;99.90;;;;;;5011506;28;20229;-57
2023/04/24 07:40:17;;;;;;;20.07;9.80;;;10.00;99.90;;;;;;5009591;28;20259;-58
2023/04/24 07:42:45;;;;;;;20.97;9.57;;;9.80;99.90;;;;;;5007309;28;20223;-57
2023/04/24 07:45:13;;;;;;;19.77;9.87;;;9.80;99.90;;;;;;5012750;28;20713;-58
2023/04/24 07:47:43;;;;;;;23.43;10.43;;;9.70;99.90;;;;;;5013964;28;20264;-58
2023/04/24 07:50:12;;;;;;;20.33;9.67;;;9.80;99.90;;;;;;5017378;28;20688;-58
2023/04/24 07:52:40;;;;;;;17.23;8.77;;;9.90;99.90;;;;;;5013334;28;20644;-57
2023/04/24 07:55:08;;;;;;;16.90;8.30;;;10.30;99.90;;;;;;5010442;28;20222;-57
2023/04/24 07:57:38;;;;;;;22.33;9.13;;;10.50;99.90;;;;;;4997170;28;20265;-58
2023/04/24 08:00:10;;;;;;;15.97;8.97;;;10.40;99.90;;;;;;5013516;28;20222;-58
2023/04/24 08:02:38;;;;;;;19.23;8.03;;;10.30;99.90;;;;;;5008188;28;20225;-58
2023/04/24 08:05:08;;;;;;;17.70;8.03;;;10.20;99.90;;;;;;5024175;28;20225;-57
2023/04/24 08:07:37;;;;;;;21.47;7.83;;;10.00;99.90;;;;;;5012894;28;20649;-57
2023/04/24 08:10:06;;;;;;;14.60;7.53;;;10.00;99.90;;;;;;5010868;28;20198;-58
2023/04/24 08:12:34;;;;;;;17.83;8.00;;;9.90;99.90;;;;;;5013258;28;20214;-58
2023/04/24 08:15:05;;;;;;;17.03;8.23;;;9.90;99.90;;;;;;5010065;28;20214;-58
2023/04/24 08:17:35;;;;;;;15.13;7.20;;;10.10;99.90;;;;;;5004715;28;20218;-58
2023/04/24 08:20:04;;;;;;;16.97;7.97;;;10.60;99.90;;;;;;5003749;28;20226;-58
2023/04/24 08:22:33;;;;;;;14.97;5.97;;;11.30;99.90;;;;;;5009519;28;20217;-58
2023/04/24 08:25:01;;;;;;;15.10;6.10;;;12.10;99.90;;;;;;5013107;28;20194;-58
2023/04/24 08:27:30;;;;;;;13.50;5.63;;;12.60;99.90;;;;;;5010598;28;20222;-58
2023/04/24 08:29:58;;;;;;;9.97;5.40;;;13.00;99.90;;;;;;5005421;28;20685;-58
2023/04/24 08:32:30;;;;;;;11.83;4.50;;;13.30;99.90;;;;;;5004885;28;20893;-58
2023/04/24 08:34:59;;;;;;;9.97;5.37;;;14.00;99.90;;;;;;5012900;28;20710;-59
2023/04/24 08:37:28;;;;;;;8.43;5.00;;;14.20;99.90;;;;;;5011550;28;20201;-58
2023/04/24 08:39:56;;;;;;;8.27;4.47;;;14.20;99.90;;;;;;5016839;28;20197;-58
2023/04/24 08:42:25;;;;;;;10.33;4.60;;;13.90;99.90;;;;;;5002868;28;20233;-58
2023/04/24 08:44:55;;;;;;;10.77;4.27;;;13.30;99.90;;;;;;5006582;28;20271;-58
2023/04/24 08:47:29;;;;;;;11.00;4.10;;;12.90;99.90;;;;;;5009666;28;20909;-58
2023/04/24 08:49:59;;;;;;;12.03;4.13;;;13.00;99.90;;;;;;5007523;28;20234;-59
2023/04/24 08:52:29;;;;;;;11.90;3.90;;;13.40;99.90;;;;;;5012570;28;20196;-58
2023/04/24 08:54:57;;;;;;;12.00;4.20;;;13.60;99.90;;;;;;5010072;28;20208;-58
2023/04/24 08:57:27;;;;;;;8.30;4.07;;;13.40;99.90;;;;;;5003422;28;20254;-58
2023/04/24 08:59:57;;;;;;;10.40;5.03;;;12.90;99.90;;;;;;5008025;28;20210;-58
2023/04/24 09:02:25;;;;;;;11.47;4.33;;;12.40;99.90;;;;;;5015101;28;20226;-58
2023/04/24 09:04:57;;;;;;;8.03;4.37;;;11.90;99.90;;;;;;5007673;28;20560;-58
2023/04/24 09:07:28;;;;;;;10.47;4.90;;;11.40;99.90;;;;;;5009143;28;20208;-58
2023/04/24 09:09:57;;;;;;;6.63;3.90;;;11.70;99.90;;;;;;5010232;28;20191;-58
2023/04/24 09:12:25;;;;;;;10.30;4.37;;;12.90;99.90;;;;;;5011013;28;20561;-57
2023/04/24 09:14:54;;;;;;;7.60;3.97;;;13.20;99.90;;;;;;5007965;28;20265;-58
2023/04/24 09:17:23;;;;;;;7.07;3.90;;;12.90;99.90;;;;;;5009628;28;20268;-58
2023/04/24 09:19:52;;;;;;;10.30;4.47;;;13.00;99.90;;;;;;5006511;28;20558;-58
2023/04/24 09:22:22;;;;;;;8.63;4.20;;;12.90;99.90;;;;;;5008921;28;20598;-58
2023/04/24 09:25:02;;;;;;;7.83;3.83;;;13.10;99.90;;;;;;5015372;28;20323;-58
2023/04/24 09:27:31;;;;;;;7.40;4.23;;;14.10;99.90;;;;;;5007586;28;20247;-58
2023/04/24 09:29:59;;;;;;;6.83;3.57;;;14.40;99.90;;;;;;5012600;28;20225;-58
2023/04/24 09:32:29;;;;;;;4.77;3.30;;;14.40;99.90;;;;;;4992513;28;20239;-58
2023/04/24 09:35:12;;;;;;;6.13;3.87;;;13.80;99.90;;;;;;5011966;28;20304;-58
2023/04/24 09:37:43;;;;;;;13.40;4.53;;;13.40;99.90;;;;;;5011613;28;20281;-58
2023/04/24 09:40:16;;;;;;;10.43;3.77;;;13.10;99.90;;;;;;5003618;28;20200;-58
2023/04/24 09:42:46;;;;;;;6.00;4.17;;;13.20;99.90;;;;;;5012229;28;20305;-57
2023/04/24 09:45:14;;;;;;;6.40;3.90;;;13.20;99.90;;;;;;5008397;28;20238;-58
2023/04/24 09:47:43;;;;;;;8.40;4.57;;;13.50;99.90;;;;;;5015224;28;20227;-58
2023/04/24 09:50:14;;;;;;;9.47;4.70;;;13.80;99.90;;;;;;5011615;28;20223;-58
2023/04/24 09:52:57;;;;;;;6.53;3.83;;;14.30;99.90;;;;;;4996131;28;20195;-58
2023/04/24 09:55:26;;;;;;;9.30;4.40;;;14.50;99.90;;;;;;5020048;28;20208;-58
2023/04/24 09:57:56;;;;;;;8.97;4.20;;;14.40;99.90;;;;;;5010930;28;20197;-58
2023/04/24 10:00:25;;;;;;;9.47;4.63;;;14.40;99.90;;;;;;5013041;28;20595;-58
2023/04/24 10:02:58;;;;;;;8.70;4.30;;;14.60;99.90;;;;;;5006718;28;20558;-58
2023/04/24 10:05:32;;;;;;;7.97;4.20;;;14.40;99.90;;;;;;5008703;28;20566;-58
2023/04/24 10:08:06;;;;;;;6.13;4.40;;;14.00;99.90;;;;;;5007746;28;20227;-58
2023/04/24 10:10:39;;;;;;;6.67;4.60;;;13.90;99.90;;;;;;5006331;28;20276;-57
2023/04/24 10:13:09;;;;;;;6.73;4.77;;;13.80;99.90;;;;;;4993759;28;20181;-58
2023/04/24 10:15:38;;;;;;;10.70;4.40;;;14.20;99.90;;;;;;5007943;28;20231;-58
2023/04/24 10:18:07;;;;;;;5.87;4.40;;;14.40;99.90;;;;;;5006869;28;20273;-58
2023/04/24 10:20:37;;;;;;;5.63;3.90;;;14.80;99.90;;;;;;5009389;28;20227;-57
2023/04/24 10:23:07;;;;;;;7.03;4.03;;;14.70;99.90;;;;;;5006527;28;20940;-58
2023/04/24 10:25:36;;;;;;;4.17;3.80;;;14.40;99.90;;;;;;5013088;28;20200;-58
2023/04/24 10:28:06;;;;;;;6.00;3.93;;;14.00;99.90;;;;;;5006477;28;20707;-58
2023/04/24 10:30:38;;;;;;;6.30;4.00;;;13.80;99.90;;;;;;5005825;28;20223;-57
2023/04/24 10:33:08;;;;;;;7.97;3.80;;;13.90;99.90;;;;;;5010353;28;20222;-58
2023/04/24 10:35:42;;;;;;;8.87;4.37;;;14.00;99.90;;;;;;5015521;28;20219;-58
2023/04/24 10:38:14;;;;;;;6.77;4.00;;;13.70;99.90;;;;;;5009135;28;20238;-58
2023/04/24 10:40:43;;;;;;;5.47;4.20;;;13.70;99.90;;;;;;5010424;28;20194;-58
2023/04/24 10:43:18;;;;;;;11.13;4.47;;;13.40;99.90;;;;;;5006582;28;20278;-57
2023/04/24 10:46:03;;;;;;;8.33;4.93;;;13.20;99.90;;;;;;5007856;28;20257;-58
2023/04/24 10:48:32;;;;;;;9.57;4.97;;;13.10;99.90;;;;;;5004618;28;20312;-57
2023/04/24 10:51:00;;;;;;;7.83;4.53;;;12.90;99.90;;;;;;5014015;28;20218;-57
2023/04/24 10:53:31;;;;;;;7.73;4.37;;;13.00;99.90;;;;;;4994858;28;20226;-57
2023/04/24 10:56:03;;;;;;;9.40;4.40;;;13.00;99.90;;;;;;5008841;28;20218;-58
2023/04/24 10:58:44;;;;;;;9.50;5.17;;;12.90;99.90;;;;;;5013364;28;20194;-57
2023/04/24 11:01:26;;;;;;;8.60;5.33;;;13.00;99.90;;;;;;5006777;28;20285;-58
2023/04/24 11:03:57;;;;;;;10.73;5.23;;;13.10;99.90;;;;;;5006485;28;20215;-58
2023/04/24 11:06:33;;;;;;;10.73;5.57;;;13.20;99.90;;;;;;4992679;28;20218;-57
2023/04/24 11:09:07;;;;;;;8.20;5.63;;;13.20;99.90;;;;;;4995853;28;20298;-57
2023/04/24 11:11:39;;;;;;;7.67;4.87;;;12.90;99.90;;;;;;4997387;28;20273;-58
2023/04/24 11:14:11;;;;;;;9.07;5.20;;;13.20;99.90;;;;;;4992122;28;20224;-57
2023/04/24 11:16:48;;;;;;;7.63;4.70;;;14.00;99.90;;;;;;4989867;28;20231;-57
2023/04/24 11:19:24;;;;;;;9.57;5.20;;;14.50;99.90;;;;;;4995639;28;20195;-58
2023/04/24 11:22:00;;;;;;;6.23;4.97;;;14.50;99.90;;;;;;4984098;28;20219;-57
2023/04/24 11:24:32;;;;;;;11.20;5.50;;;14.10;99.90;;;;;;4993914;28;20218;-57
2023/04/24 11:27:08;;;;;;;8.23;5.10;;;13.60;99.90;;;;;;5001333;28;20217;-57
2023/04/24 11:29:50;;;;;;;9.63;5.47;;;13.40;99.90;;;;;;5000607;28;20222;-57
2023/04/24 11:32:29;;;;;;;9.17;5.07;;;13.70;99.90;;;;;;4987695;28;20309;-57
2023/04/24 11:34:59;;;;;;;7.77;5.27;;;13.80;99.90;;;;;;4992365;28;20226;-58
2023/04/24 11:37:30;;;;;;;9.03;5.13;;;13.80;99.90;;;;;;5009707;28;20187;-57
2023/04/24 11:40:00;;;;;;;8.77;5.57;;;13.60;99.90;;;;;;4988527;28;20205;-57
2023/04/24 11:42:34;;;;;;;8.33;5.53;;;13.40;99.90;;;;;;4998737;28;20218;-57
2023/04/24 11:45:03;;;;;;;7.80;5.73;;;13.20;99.90;;;;;;5003106;28;20226;-57
2023/04/24 11:47:33;;;;;;;7.13;5.47;;;13.10;99.90;;;;;;4996225;28;20226;-57
2023/04/24 11:50:03;;;;;;;9.90;5.83;;;13.10;99.90;;;;;;4999535;28;20726;-57
2023/04/24 11:52:31;;;;;;;7.03;5.30;;;13.10;99.90;;;;;;5000993;28;20273;-57
2023/04/24 11:55:01;;;;;;;7.00;5.43;;;13.30;99.90;;;;;;4985969;28;20191;-57
2023/04/24 11:57:33;;;;;;;7.93;5.30;;;13.20;99.90;;;;;;4995388;28;20222;-56
2023/04/24 12:00:02;;;;;;;6.57;5.20;;;13.20;99.90;;;;;;5007990;28;20237;-57
2023/04/24 12:02:32;;;;;;;9.63;5.53;;;13.10;99.90;;;;;;5002959;28;20230;-57
2023/04/24 12:05:01;;;;;;;7.07;4.90;;;13.00;99.90;;;;;;5002319;28;20735;-57
2023/04/24 12:07:30;;;;;;;8.10;4.67;;;13.10;99.90;;;;;;5013484;28;20198;-57
2023/04/24 12:10:00;;;;;;;7.50;5.00;;;13.30;99.90;;;;;;5011610;28;20189;-57
2023/04/24 12:12:30;;;;;;;5.20;4.80;;;13.40;99.90;;;;;;5013863;28;20225;-57
2023/04/24 12:14:59;;;;;;;6.17;4.70;;;13.50;99.90;;;;;;5008646;28;20209;-57
2023/04/24 12:17:30;;;;;;;4.47;4.00;;;13.40;99.90;;;;;;5001883;28;20219;-57
2023/04/24 12:20:00;;;;;;;5.20;3.67;;;13.60;99.90;;;;;;5010615;28;20278;-58
2023/04/24 12:22:30;;;;;;;5.03;3.90;;;13.70;99.90;;;;;;4989059;28;20210;-57
2023/04/24 12:25:03;;;;;;;12.23;3.73;;;13.70;99.90;;;;;;5008191;28;20210;-57
2023/04/24 12:27:33;;;;;;;5.97;3.70;;;13.90;99.90;;;;;;5010049;28;20221;-57
2023/04/24 12:30:05;;;;;;;5.83;3.57;;;14.10;99.90;;;;;;5012090;28;20226;-57
2023/04/24 12:32:41;;;;;;;4.47;3.40;;;14.40;99.90;;;;;;5011962;28;20276;-56
2023/04/24 12:35:10;;;;;;;6.13;3.47;;;15.00;99.90;;;;;;5006966;28;20250;-57
2023/04/24 12:37:39;;;;;;;3.90;3.00;;;15.20;99.90;;;;;;5007914;28;20238;-57
2023/04/24 12:40:09;;;;;;;4.77;3.27;;;15.90;99.90;;;;;;5013590;28;20239;-57
2023/04/24 12:42:44;;;;;;;3.20;2.90;;;16.20;99.90;;;;;;4991775;28;20216;-57
2023/04/24 12:45:14;;;;;;;3.47;3.13;;;16.10;99.90;;;;;;5011961;28;20226;-57
2023/04/24 12:47:43;;;;;;;6.17;3.13;;;15.60;99.90;;;;;;5010709;28;20260;-57
2023/04/24 12:50:14;;;;;;;6.10;3.17;;;15.10;99.90;;;;;;5009970;28;20295;-58
2023/04/24 12:52:43;;;;;;;5.40;3.27;;;15.20;99.90;;;;;;5013708;28;20607;-57
2023/04/24 12:55:11;;;;;;;5.23;3.07;;;15.10;99.90;;;;;;5011035;28;20231;-57